Time,TemperatureF,DewpointF,PressureIn,WindDirection,WindDirectionDegrees,WindSpeedMPH,WindSpeedGustMPH,Humidity,HourlyPrecipIn,Conditions,Clouds,dailyrainin,SolarRadiationWatts/m^2,SoftwareType,DateUTC
2013-02-28 00:01:00,23.0,18.0,-100.00,SSW,198,6.0,10.0,81,0.00,,,0.00,0.000000,,2013-02-28 08:01:00,
2013-02-28 00:53:00,21.0,15.0,-100.00,South,177,10.0,10.0,76,0.00,,,0.00,0.000000,,2013-02-28 08:53:00,
2013-02-28 01:03:00,21.0,15.0,-100.00,South,177,10.0,10.0,76,0.00,,,0.00,0.000000,,2013-02-28 09:03:00,
2013-02-28 01:11:00,21.0,15.0,-100.00,South,177,10.0,10.0,76,0.00,,,0.00,0.000000,,2013-02-28 09:11:00,
2013-02-28 01:21:00,21.0,15.0,-100.00,South,177,10.0,10.0,76,0.00,,,0.00,0.000000,,2013-02-28 09:21:00,
2013-02-28 01:52:00,20.0,14.0,-100.00,SSW,197,5.0,14.0,76,0.00,,,0.00,0.000000,,2013-02-28 09:52:00,
2013-02-28 02:01:00,20.0,14.0,-100.00,SSW,197,5.0,14.0,76,0.00,,,0.00,0.000000,,2013-02-28 10:01:00,
2013-02-28 02:11:00,20.0,14.0,-100.00,SSW,197,5.0,14.0,76,0.00,,,0.00,0.000000,,2013-02-28 10:11:00,
2013-02-28 02:21:00,20.0,14.0,-100.00,SSW,197,5.0,14.0,76,0.00,,,0.00,0.000000,,2013-02-28 10:21:00,
2013-02-28 02:52:00,19.0,14.0,-100.00,South,183,8.0,14.0,81,0.00,,,0.00,0.000000,,2013-02-28 10:52:00,
2013-02-28 03:01:00,19.0,14.0,-100.00,South,183,8.0,14.0,81,0.00,,,0.00,0.000000,,2013-02-28 11:01:00,
2013-02-28 03:11:00,19.0,14.0,-100.00,South,183,8.0,14.0,81,0.00,,,0.00,0.000000,,2013-02-28 11:11:00,
2013-02-28 03:21:00,19.0,14.0,-100.00,South,183,8.0,14.0,81,0.00,,,0.00,0.000000,,2013-02-28 11:21:00,
2013-02-28 03:52:00,18.0,13.0,-100.00,South,176,7.0,11.0,80,0.00,,,0.00,0.000000,,2013-02-28 11:52:00,
2013-02-28 04:01:00,18.0,13.0,-100.00,South,176,7.0,11.0,80,0.00,,,0.00,0.000000,,2013-02-28 12:01:00,
2013-02-28 04:11:00,18.0,13.0,-100.00,South,176,7.0,11.0,80,0.00,,,0.00,0.000000,,2013-02-28 12:11:00,
2013-02-28 04:21:00,18.0,13.0,-100.00,South,176,7.0,11.0,80,0.00,,,0.00,0.000000,,2013-02-28 12:21:00,
2013-02-28 04:52:00,17.0,11.0,-100.00,South,169,8.0,19.0,77,0.00,,,-99.99,0.000000,,2013-02-28 12:52:00,
2013-02-28 05:01:00,17.0,11.0,-100.00,South,169,8.0,19.0,77,0.00,,,-99.99,0.000000,,2013-02-28 13:01:00,
2013-02-28 05:11:00,17.0,11.0,-100.00,South,169,8.0,19.0,77,0.00,,,0.00,0.000000,,2013-02-28 13:11:00,
2013-02-28 05:21:00,17.0,11.0,-100.00,South,169,8.0,19.0,77,0.00,,,0.00,0.000000,,2013-02-28 13:21:00,
2013-02-28 05:52:00,17.0,10.0,-100.00,South,189,8.0,12.0,75,0.00,,,0.00,0.000000,,2013-02-28 13:52:00,
2013-02-28 06:01:00,17.0,10.0,-100.00,South,189,8.0,12.0,75,0.00,,,0.00,0.000000,,2013-02-28 14:01:00,
2013-02-28 06:11:00,17.0,10.0,-100.00,South,189,8.0,12.0,75,0.00,,,0.00,0.000000,,2013-02-28 14:11:00,
2013-02-28 06:21:00,17.0,10.0,-100.00,South,189,8.0,12.0,75,0.00,,,0.00,0.000000,,2013-02-28 14:21:00,
2013-02-28 06:52:00,17.0,11.0,-100.00,South,190,8.0,14.0,76,0.00,,,0.00,0.000000,,2013-02-28 14:52:00,
2013-02-28 07:02:00,17.0,11.0,-100.00,South,190,8.0,14.0,76,0.00,,,0.00,0.000000,,2013-02-28 15:02:00,
2013-02-28 07:11:00,17.0,11.0,-100.00,South,190,8.0,14.0,76,0.00,,,0.00,0.000000,,2013-02-28 15:11:00,
2013-02-28 07:21:00,17.0,11.0,-100.00,South,190,8.0,14.0,76,0.00,,,0.00,0.000000,,2013-02-28 15:21:00,
2013-02-28 07:52:00,17.0,7.0,-100.00,South,183,9.0,12.0,64,0.00,,,0.00,3.000000,,2013-02-28 15:52:00,
2013-02-28 08:01:00,17.0,7.0,-100.00,South,183,9.0,12.0,64,0.00,,,0.00,3.000000,,2013-02-28 16:01:00,
2013-02-28 08:11:00,17.0,7.0,-100.00,South,183,9.0,12.0,64,0.00,,,0.00,3.000000,,2013-02-28 16:11:00,
2013-02-28 08:21:00,17.0,7.0,-100.00,South,183,9.0,12.0,64,0.00,,,0.00,3.000000,,2013-02-28 16:21:00,
2013-02-28 08:52:00,23.0,8.0,-100.00,South,178,7.0,13.0,51,0.00,,,0.00,117.000000,,2013-02-28 16:52:00,
2013-02-28 09:01:00,23.0,8.0,-100.00,South,178,7.0,13.0,51,0.00,,,0.00,117.000000,,2013-02-28 17:01:00,
2013-02-28 09:11:00,23.0,8.0,-100.00,South,178,7.0,13.0,51,0.00,,,0.00,117.000000,,2013-02-28 17:11:00,
2013-02-28 09:21:00,23.0,8.0,-100.00,South,178,7.0,13.0,51,0.00,,,0.00,117.000000,,2013-02-28 17:21:00,
2013-02-28 09:52:00,31.0,7.0,-100.00,South,178,5.0,13.0,35,0.00,,,0.00,314.000000,,2013-02-28 17:52:00,
2013-02-28 10:02:00,31.0,7.0,-100.00,South,178,5.0,13.0,35,0.00,,,0.00,314.000000,,2013-02-28 18:02:00,
2013-02-28 10:11:00,31.0,7.0,-100.00,South,178,5.0,13.0,35,0.00,,,0.00,314.000000,,2013-02-28 18:11:00,
2013-02-28 10:21:00,31.0,7.0,-100.00,South,178,5.0,13.0,35,0.00,,,0.00,314.000000,,2013-02-28 18:21:00,
2013-02-28 11:52:00,52.0,9.0,-100.00,WSW,247,0.0,6.0,17,0.00,,,0.00,646.000000,,2013-02-28 19:52:00,
2013-02-28 12:52:00,58.0,24.0,-100.00,WNW,291,10.0,10.0,27,0.00,,,0.00,896.000000,,2013-02-28 20:52:00,
2013-02-28 13:52:00,46.0,14.0,-100.00,NW,315,12.0,16.0,27,-99.99,,,0.00,922.000000,,2013-02-28 21:52:00,
2013-02-28 14:01:00,46.0,14.0,-100.00,NW,315,12.0,16.0,27,-99.99,,,0.00,922.000000,,2013-02-28 22:01:00,
2013-02-28 14:11:00,46.0,14.0,-100.00,NW,315,12.0,16.0,27,-99.99,,,0.00,922.000000,,2013-02-28 22:11:00,
2013-02-28 14:21:00,46.0,14.0,-100.00,NW,315,12.0,16.0,27,-99.99,,,0.00,922.000000,,2013-02-28 22:21:00,
2013-02-28 14:52:00,47.0,13.0,-100.00,North,350,7.0,18.0,25,0.00,,,0.00,856.000000,,2013-02-28 22:52:00,
2013-02-28 15:01:00,47.0,13.0,-100.00,North,350,7.0,18.0,25,0.00,,,0.00,856.000000,,2013-02-28 23:01:00,
2013-02-28 15:11:00,47.0,13.0,-100.00,North,350,7.0,18.0,25,0.00,,,0.00,856.000000,,2013-02-28 23:11:00,
2013-02-28 15:21:00,47.0,13.0,-100.00,North,350,7.0,18.0,25,0.00,,,0.00,856.000000,,2013-02-28 23:21:00,
2013-02-28 15:53:00,50.0,16.0,-100.00,NE,35,7.0,16.0,26,0.00,,,0.00,803.000000,,2013-02-28 23:53:00,
2013-02-28 16:01:00,50.0,16.0,-100.00,NE,35,7.0,16.0,26,0.00,,,0.00,803.000000,,2013-03-01 00:01:00,
2013-02-28 16:11:00,50.0,16.0,-100.00,NE,35,7.0,16.0,26,0.00,,,0.00,803.000000,,2013-03-01 00:11:00,
2013-02-28 16:22:00,50.0,16.0,-100.00,NE,35,7.0,16.0,26,0.00,,,0.00,803.000000,,2013-03-01 00:22:00,
2013-02-28 16:52:00,48.0,16.0,-100.00,NNE,23,7.0,13.0,28,0.00,,,0.00,660.000000,,2013-03-01 00:52:00,
2013-02-28 17:01:00,48.0,16.0,-100.00,NNE,23,7.0,13.0,28,0.00,,,0.00,660.000000,,2013-03-01 01:01:00,
2013-02-28 17:11:00,48.0,16.0,-100.00,NNE,23,7.0,13.0,28,0.00,,,0.00,660.000000,,2013-03-01 01:11:00,
2013-02-28 17:21:00,48.0,16.0,-100.00,NNE,23,7.0,13.0,28,0.00,,,0.00,660.000000,,2013-03-01 01:21:00,
2013-02-28 17:52:00,46.0,23.0,-100.00,NE,35,3.0,10.0,40,0.00,,,0.00,447.000000,,2013-03-01 01:52:00,
2013-02-28 18:01:00,46.0,23.0,-100.00,NE,35,3.0,10.0,40,0.00,,,0.00,447.000000,,2013-03-01 02:01:00,
2013-02-28 18:11:00,46.0,23.0,-100.00,NE,35,3.0,10.0,40,0.00,,,0.00,447.000000,,2013-03-01 02:11:00,
2013-02-28 18:21:00,46.0,23.0,-100.00,NE,35,3.0,10.0,40,0.00,,,0.00,447.000000,,2013-03-01 02:21:00,
2013-02-28 18:52:00,41.0,31.0,-100.00,WNW,289,2.0,8.0,67,0.00,,,0.00,172.000000,,2013-03-01 02:52:00,
2013-02-28 19:52:00,32.0,23.0,-100.00,West,278,7.0,7.0,70,0.00,,,0.00,3.000000,,2013-03-01 03:52:00,
2013-02-28 20:01:00,32.0,23.0,-100.00,West,278,7.0,7.0,70,0.00,,,0.00,3.000000,,2013-03-01 04:01:00,
2013-02-28 20:11:00,32.0,23.0,-100.00,West,278,7.0,7.0,70,0.00,,,0.00,3.000000,,2013-03-01 04:11:00,
2013-02-28 20:21:00,32.0,23.0,-100.00,West,278,7.0,7.0,70,0.00,,,0.00,3.000000,,2013-03-01 04:21:00,
2013-02-28 20:52:00,32.0,27.0,-100.00,SSW,209,2.0,9.0,81,0.00,,,0.00,0.000000,,2013-03-01 04:52:00,
2013-02-28 21:02:00,32.0,27.0,-100.00,SSW,209,2.0,9.0,81,0.00,,,0.00,0.000000,,2013-03-01 05:02:00,
2013-02-28 21:11:00,32.0,27.0,-100.00,SSW,209,2.0,9.0,81,0.00,,,0.00,0.000000,,2013-03-01 05:11:00,
2013-02-28 21:22:00,32.0,27.0,-100.00,SSW,209,2.0,9.0,81,0.00,,,0.00,0.000000,,2013-03-01 05:22:00,
2013-02-28 21:52:00,29.0,25.0,-100.00,South,172,6.0,7.0,84,0.00,,,0.00,0.000000,,2013-03-01 05:52:00,
2013-02-28 22:02:00,29.0,25.0,-100.00,South,172,6.0,7.0,84,0.00,,,0.00,0.000000,,2013-03-01 06:02:00,
2013-02-28 22:11:00,29.0,25.0,-100.00,South,172,6.0,7.0,84,0.00,,,0.00,0.000000,,2013-03-01 06:11:00,
2013-02-28 22:21:00,29.0,25.0,-100.00,South,172,6.0,7.0,84,0.00,,,0.00,0.000000,,2013-03-01 06:21:00,
2013-02-28 22:52:00,29.0,25.0,-100.00,SW,221,3.0,8.0,86,0.00,,,0.00,0.000000,,2013-03-01 06:52:00,
2013-02-28 23:01:00,29.0,25.0,-100.00,SW,221,3.0,8.0,86,0.00,,,0.00,0.000000,,2013-03-01 07:01:00,
2013-02-28 23:11:00,29.0,25.0,-100.00,SW,221,3.0,8.0,86,0.00,,,0.00,0.000000,,2013-03-01 07:11:00,
2013-02-28 23:21:00,29.0,25.0,-100.00,SW,221,3.0,8.0,86,0.00,,,0.00,0.000000,,2013-03-01 07:21:00,
2013-02-28 23:52:00,27.0,23.0,-100.00,SSE,168,7.0,7.0,85,0.00,,,0.00,0.000000,,2013-03-01 07:52:00,